Time;durP1;ratioP1;P1;durP2;ratioP2;P2;SDS_P1;SDS_P2;PMS_P1;PMS_P2;Temp;Humidity;BMP_temperature;BMP_pressure;BME280_temperature;BME280_humidity;BME280_pressure;Samples;Min_cycle;Max_cycle;Signal;HPM_P1;HPM_P2
2022/10/03 00:01:21;;;;;;;22.50;3.72;;;8.60;99.90;;;;;;5003309;28;20081;-75
2022/10/03 00:04:03;;;;;;;27.60;3.08;;;8.60;99.90;;;;;;5003199;28;20459;-75
2022/10/03 00:06:32;;;;;;;26.35;2.15;;;8.60;99.90;;;;;;4982224;28;20097;-74
2022/10/03 00:09:08;;;;;;;15.63;2.40;;;8.60;99.90;;;;;;4995987;28;20097;-75
2022/10/03 00:11:58;;;;;;;14.75;1.80;;;8.60;99.90;;;;;;4994940;28;20054;-74
2022/10/03 00:14:53;;;;;;;19.13;1.88;;;8.60;99.90;;;;;;4994753;28;20047;-75
2022/10/03 00:17:49;;;;;;;19.58;2.55;;;8.50;99.90;;;;;;4998509;28;20050;-75
2022/10/03 00:20:15;;;;;;;16.30;2.15;;;8.50;99.90;;;;;;4997938;28;20100;-77
2022/10/03 00:22:55;;;;;;;17.73;1.98;;;8.50;99.90;;;;;;4998273;28;20058;-75
2022/10/03 00:25:26;;;;;;;17.63;2.03;;;8.50;99.90;;;;;;4997575;28;20046;-74
2022/10/03 00:27:58;;;;;;;22.80;2.97;;;8.50;99.90;;;;;;4998744;28;20477;-75
2022/10/03 00:30:24;;;;;;;17.05;2.13;;;8.40;99.90;;;;;;4997090;28;20478;-79
2022/10/03 00:33:05;;;;;;;14.60;2.33;;;8.40;99.90;;;;;;5013619;28;20049;-73
2022/10/03 00:35:49;;;;;;;16.83;2.92;;;8.40;99.90;;;;;;4996581;28;20136;-73
2022/10/03 00:38:23;;;;;;;16.20;2.30;;;8.40;99.90;;;;;;4997433;28;20042;-73
2022/10/03 00:40:59;;;;;;;19.63;3.28;;;8.40;99.90;;;;;;4996942;28;20104;-74
2022/10/03 00:43:49;;;;;;;12.30;1.92;;;8.40;99.90;;;;;;4995946;28;20054;-78
2022/10/03 00:46:50;;;;;;;13.27;2.20;;;8.40;99.90;;;;;;4997127;28;20444;-74
2022/10/03 00:49:54;;;;;;;18.10;2.63;;;8.40;99.90;;;;;;4996908;28;20042;-75
2022/10/03 00:52:38;;;;;;;23.77;2.53;;;8.50;99.90;;;;;;4996877;28;20100;-74
2022/10/03 00:55:22;;;;;;;23.70;2.20;;;8.50;99.90;;;;;;4996135;28;20050;-73
2022/10/03 00:57:56;;;;;;;21.40;2.20;;;8.40;99.90;;;;;;4996110;28;20050;-73
2022/10/03 01:00:54;;;;;;;23.98;2.63;;;8.40;99.90;;;;;;4997020;28;20042;-73
2022/10/03 01:03:34;;;;;;;16.35;2.05;;;8.40;99.90;;;;;;4996789;28;20074;-73
2022/10/03 01:06:26;;;;;;;20.10;1.90;;;8.40;99.90;;;;;;4996932;28;20054;-74
2022/10/03 01:09:21;;;;;;;20.98;2.03;;;8.40;99.90;;;;;;4992395;28;20089;-74
2022/10/03 01:12:05;;;;;;;16.15;1.83;;;8.40;99.90;;;;;;4989296;28;20094;-74
2022/10/03 01:14:42;;;;;;;14.10;1.98;;;8.40;99.90;;;;;;4995507;28;20051;-73
2022/10/03 01:17:13;;;;;;;14.60;1.88;;;8.30;99.90;;;;;;4995802;28;20151;-73
2022/10/03 01:19:47;;;;;;;17.67;1.90;;;8.30;99.90;;;;;;4995905;28;20090;-74
2022/10/03 01:23:03;;;;;;;13.00;2.00;;;8.30;99.90;;;;;;4995828;28;20192;-74
2022/10/03 01:25:36;;;;;;;24.95;3.25;;;8.30;99.90;;;;;;4985901;28;20069;-80
2022/10/03 01:31:31;;;;;;;18.23;2.60;;;8.20;99.90;;;;;;4995548;28;20081;-73
2022/10/03 01:34:15;;;;;;;20.42;2.33;;;8.20;99.90;;;;;;4999791;28;20053;-74
2022/10/03 01:37:16;;;;;;;17.52;2.13;;;8.10;99.90;;;;;;5006683;28;20076;-72
2022/10/03 01:40:08;;;;;;;17.58;2.42;;;8.10;99.90;;;;;;5005890;28;20398;-73
2022/10/03 01:42:53;;;;;;;12.82;1.60;;;8.10;99.90;;;;;;4997663;28;20062;-73
2022/10/03 01:45:39;;;;;;;16.83;2.45;;;8.10;99.90;;;;;;4998134;28;20065;-75
2022/10/03 01:48:16;;;;;;;21.23;2.15;;;8.00;99.90;;;;;;4997881;28;20054;-74
2022/10/03 01:51:05;;;;;;;8.88;1.90;;;8.00;99.90;;;;;;4995985;28;20112;-73
2022/10/03 01:53:58;;;;;;;8.85;1.65;;;8.00;99.90;;;;;;4974812;28;20054;-74
2022/10/03 01:56:57;;;;;;;14.35;2.20;;;8.00;99.90;;;;;;4996977;28;20047;-73
2022/10/03 01:59:48;;;;;;;14.75;1.98;;;8.00;99.90;;;;;;5011863;28;20053;-73
2022/10/03 02:02:23;;;;;;;11.35;1.42;;;8.00;99.90;;;;;;4995920;28;20050;-74
2022/10/03 02:05:05;;;;;;;15.27;2.15;;;8.00;99.90;;;;;;5002164;28;20097;-73
2022/10/03 02:07:42;;;;;;;11.68;1.55;;;8.00;99.90;;;;;;5001394;28;20050;-77
2022/10/03 02:10:26;;;;;;;10.13;1.80;;;8.00;99.90;;;;;;5001952;28;20134;-74
2022/10/03 02:13:16;;;;;;;13.38;1.45;;;7.90;99.90;;;;;;5003157;28;20289;-74
2022/10/03 02:15:56;;;;;;;12.57;1.70;;;7.90;99.90;;;;;;5003210;28;20504;-74
2022/10/03 02:18:27;;;;;;;13.52;1.80;;;7.90;99.90;;;;;;5002985;28;20086;-74
2022/10/03 02:21:00;;;;;;;17.13;1.42;;;7.90;99.90;;;;;;5004133;28;20053;-75
2022/10/03 02:23:31;;;;;;;5.70;1.15;;;7.80;99.90;;;;;;5014697;28;20049;-78
2022/10/03 02:26:21;;;;;;;14.13;1.90;;;7.80;99.90;;;;;;5014543;28;20130;-75
2022/10/03 02:29:07;;;;;;;15.15;1.30;;;7.80;99.90;;;;;;4997748;28;20121;-74
2022/10/03 02:31:46;;;;;;;13.20;1.40;;;7.80;99.90;;;;;;4996819;28;20057;-74
2022/10/03 02:34:23;;;;;;;7.88;1.45;;;7.70;99.90;;;;;;5010266;28;20050;-73
2022/10/03 02:37:19;;;;;;;18.33;1.80;;;7.70;99.90;;;;;;4995056;28;20142;-78
2022/10/03 02:40:19;;;;;;;11.07;2.03;;;7.70;99.90;;;;;;4978904;28;20058;-74
2022/10/03 02:43:03;;;;;;;13.70;1.58;;;7.70;99.90;;;;;;5010267;28;20064;-73
2022/10/03 02:45:50;;;;;;;11.50;1.33;;;7.70;99.90;;;;;;4995417;28;20050;-73
2022/10/03 02:48:55;;;;;;;14.52;1.73;;;7.60;99.90;;;;;;4993534;28;20371;-73
2022/10/03 02:51:54;;;;;;;11.50;1.27;;;7.60;99.90;;;;;;4983069;28;20066;-75
2022/10/03 02:54:44;;;;;;;10.38;1.50;;;7.70;99.90;;;;;;4994804;28;20437;-73
2022/10/03 02:57:30;;;;;;;17.98;1.58;;;7.70;99.90;;;;;;4994261;28;20474;-75
2022/10/03 03:00:09;;;;;;;15.10;1.60;;;7.60;99.90;;;;;;4994697;28;20046;-73
2022/10/03 03:02:57;;;;;;;8.52;1.58;;;7.70;99.90;;;;;;4994360;28;20328;-74
2022/10/03 03:06:03;;;;;;;14.88;1.70;;;7.70;99.90;;;;;;4993161;28;20460;-74
2022/10/03 03:08:38;;;;;;;12.88;1.30;;;7.70;99.90;;;;;;4994466;28;20116;-73
2022/10/03 03:11:25;;;;;;;19.63;1.50;;;7.70;99.90;;;;;;5008798;28;20133;-74
2022/10/03 03:14:20;;;;;;;12.93;2.05;;;7.60;99.90;;;;;;4994046;28;20042;-76
2022/10/03 03:16:58;;;;;;;13.87;1.77;;;7.60;99.90;;;;;;4993276;28;20042;-73
2022/10/03 03:19:35;;;;;;;10.77;1.63;;;7.60;99.90;;;;;;4994528;28;20045;-73
2022/10/03 03:22:39;;;;;;;7.85;1.52;;;7.60;99.90;;;;;;4994644;28;20050;-73
2022/10/03 03:25:25;;;;;;;18.58;2.30;;;7.60;99.90;;;;;;4994115;28;20129;-73
2022/10/03 03:27:57;;;;;;;;;;;7.60;99.90;;;;;;4994003;28;20129;-73
2022/10/03 03:30:30;;;;;;;17.85;1.65;;;7.60;99.90;;;;;;5009523;28;19925;-73
2022/10/03 03:33:13;;;;;;;17.70;1.85;;;7.60;99.90;;;;;;4994859;28;20120;-74
2022/10/03 03:35:51;;;;;;;13.57;1.55;;;7.60;99.90;;;;;;4994442;28;20138;-81
2022/10/03 03:38:29;;;;;;;13.45;1.58;;;7.60;99.90;;;;;;4992520;28;20145;-74
2022/10/03 03:41:07;;;;;;;17.92;1.95;;;7.60;99.90;;;;;;4994779;28;20089;-73
2022/10/03 03:43:58;;;;;;;11.95;2.60;;;7.60;99.90;;;;;;4995906;28;20053;-74
2022/10/03 03:46:57;;;;;;;22.55;2.20;;;7.60;99.90;;;;;;4994767;28;20449;-72
2022/10/03 03:49:46;;;;;;;11.98;2.10;;;7.60;99.90;;;;;;4996645;28;20061;-74
2022/10/03 03:52:48;;;;;;;12.45;2.33;;;7.50;99.90;;;;;;4987598;28;20057;-75
2022/10/03 03:55:39;;;;;;;22.15;1.77;;;7.60;99.90;;;;;;4998131;28;20207;-74
2022/10/03 03:58:32;;;;;;;14.57;2.13;;;7.50;99.90;;;;;;4997377;28;20046;-73
2022/10/03 04:01:04;;;;;;;15.35;1.83;;;7.50;99.90;;;;;;4988564;28;20062;-72
2022/10/03 04:03:43;;;;;;;10.48;1.67;;;7.50;99.90;;;;;;5012713;28;20054;-73
2022/10/03 04:06:26;;;;;;;17.15;1.98;;;7.50;99.90;;;;;;5012496;28;20042;-72
2022/10/03 04:09:16;;;;;;;15.32;2.33;;;7.60;99.90;;;;;;4997810;28;20380;-72
2022/10/03 04:12:08;;;;;;;14.75;1.60;;;7.60;99.90;;;;;;4997177;28;20062;-79
2022/10/03 04:14:42;;;;;;;12.18;2.10;;;7.60;99.90;;;;;;4997388;28;20338;-74
2022/10/03 04:20:38;;;;;;;11.73;1.80;;;7.50;99.90;;;;;;4997755;28;20058;-76
2022/10/03 04:23:15;;;;;;;13.05;1.80;;;7.60;99.90;;;;;;4997264;28;20395;-75
2022/10/03 04:25:45;;;;;;;15.60;2.50;;;7.50;99.90;;;;;;4996565;28;20125;-73
2022/10/03 04:28:34;;;;;;;13.57;2.60;;;7.50;99.90;;;;;;4996822;28;20053;-73
2022/10/03 04:31:02;;;;;;;21.17;3.35;;;7.40;99.90;;;;;;4995513;28;20154;-72
2022/10/03 04:33:42;;;;;;;15.50;3.55;;;7.50;99.90;;;;;;5012502;28;20042;-72
2022/10/03 04:36:31;;;;;;;9.40;2.45;;;7.50;99.90;;;;;;4997339;28;20050;-73
2022/10/03 04:39:28;;;;;;;18.55;4.00;;;7.50;99.90;;;;;;5012194;28;20438;-73
2022/10/03 04:42:39;;;;;;;16.33;3.20;;;7.50;99.90;;;;;;4996895;28;20130;-74
2022/10/03 04:45:27;;;;;;;22.88;3.00;;;7.40;99.90;;;;;;4995944;28;20488;-72
2022/10/03 04:48:08;;;;;;;13.48;1.80;;;7.40;99.90;;;;;;4996639;28;20069;-73
2022/10/03 04:50:49;;;;;;;13.52;2.33;;;7.40;99.90;;;;;;4996084;28;20050;-72
2022/10/03 04:53:37;;;;;;;38.42;2.92;;;7.40;99.90;;;;;;4996685;28;20047;-72
2022/10/03 04:56:42;;;;;;;39.72;3.97;;;7.50;99.90;;;;;;4996220;28;20050;-75
2022/10/03 04:59:33;;;;;;;36.92;3.20;;;7.50;99.90;;;;;;4995629;28;20488;-73
2022/10/03 05:02:21;;;;;;;28.83;2.58;;;7.40;99.90;;;;;;4994757;28;20053;-73
2022/10/03 05:05:06;;;;;;;42.03;2.40;;;7.40;99.90;;;;;;4996867;28;20538;-77
2022/10/03 05:07:40;;;;;;;18.83;2.17;;;7.50;99.90;;;;;;4996744;28;20065;-74
2022/10/03 05:10:34;;;;;;;29.75;2.83;;;7.60;99.90;;;;;;4997262;28;20053;-75
2022/10/03 05:13:31;;;;;;;19.65;2.00;;;7.60;99.90;;;;;;4979035;28;20398;-76
2022/10/03 05:16:47;;;;;;;29.08;3.05;;;7.60;99.90;;;;;;4996899;28;20104;-74
2022/10/03 05:19:32;;;;;;;25.90;3.10;;;7.60;99.90;;;;;;4975933;28;20448;-75
2022/10/03 05:22:11;;;;;;;39.72;3.13;;;7.50;99.90;;;;;;4994126;28;20286;-74
2022/10/03 05:25:08;;;;;;;32.80;2.67;;;7.60;99.90;;;;;;4992949;28;20094;-74
2022/10/03 05:27:52;;;;;;;46.13;3.92;;;7.50;99.90;;;;;;4995238;28;20050;-75
2022/10/03 05:30:41;;;;;;;36.63;2.55;;;7.50;99.90;;;;;;5001128;28;20498;-74
2022/10/03 05:33:26;;;;;;;32.95;2.90;;;7.50;99.90;;;;;;4998271;28;20371;-74
2022/10/03 05:36:14;;;;;;;33.50;2.80;;;7.50;99.90;;;;;;4996474;28;20046;-81
2022/10/03 05:39:00;;;;;;;38.78;3.22;;;7.50;99.90;;;;;;4995145;28;20108;-76
2022/10/03 05:41:31;;;;;;;23.27;3.10;;;7.40;99.90;;;;;;4997935;28;20104;-74
2022/10/03 05:44:07;;;;;;;8.40;1.92;;;7.50;99.90;;;;;;5013882;28;20410;-76
2022/10/03 05:47:43;;;;;;;8.10;2.20;;;7.40;99.90;;;;;;4998410;28;20055;-75
2022/10/03 05:50:12;;;;;;;11.73;2.45;;;7.40;99.90;;;;;;4994584;28;20058;-80
2022/10/03 05:52:58;;;;;;;10.38;2.17;;;7.30;99.90;;;;;;4995883;28;20129;-74
2022/10/03 05:56:01;;;;;;;7.72;1.70;;;7.30;99.90;;;;;;4996198;28;20046;-74
2022/10/03 05:58:30;;;;;;;9.40;1.90;;;7.30;99.90;;;;;;4994941;28;20054;-75
2022/10/03 06:01:18;;;;;;;12.98;2.55;;;7.30;99.90;;;;;;4995098;28;20086;-78
2022/10/03 06:04:02;;;;;;;12.73;1.90;;;7.30;99.90;;;;;;4995017;28;20450;-75
2022/10/03 06:06:47;;;;;;;8.75;2.20;;;7.30;99.90;;;;;;4995792;28;20405;-74
2022/10/03 06:09:34;;;;;;;7.82;1.65;;;7.30;99.90;;;;;;4999204;28;20133;-74
2022/10/03 06:12:31;;;;;;;15.27;2.30;;;7.30;99.90;;;;;;4996983;28;20133;-74
2022/10/03 06:15:32;;;;;;;7.22;1.75;;;7.30;99.90;;;;;;4995346;28;20093;-74
2022/10/03 06:18:10;;;;;;;8.02;1.70;;;7.30;99.90;;;;;;4994892;28;20046;-76
2022/10/03 06:21:08;;;;;;;10.18;2.25;;;7.40;99.90;;;;;;4995692;28;20061;-76
2022/10/03 06:24:13;;;;;;;6.47;1.90;;;7.40;99.90;;;;;;4960233;28;20050;-72
2022/10/03 06:27:17;;;;;;;12.75;2.35;;;7.40;99.90;;;;;;4994933;28;20046;-74
2022/10/03 06:29:57;;;;;;;9.20;2.10;;;7.50;99.90;;;;;;4940707;28;20108;-75
2022/10/03 06:32:24;;;;;;;11.60;2.30;;;7.50;99.90;;;;;;4973171;28;20116;-75
2022/10/03 06:34:56;;;;;;;;;;;7.50;99.90;;;;;;4986104;28;20139;-73
2022/10/03 06:37:49;;;;;;;8.25;2.40;;;7.60;99.90;;;;;;4993526;28;20026;-75
2022/10/03 06:40:21;;;;;;;8.98;2.50;;;7.60;99.90;;;;;;4993391;28;20123;-74
2022/10/03 06:43:01;;;;;;;9.55;2.55;;;7.60;99.90;;;;;;4993941;28;20147;-74
2022/10/03 06:46:11;;;;;;;9.35;2.90;;;7.60;99.90;;;;;;4994678;28;20053;-74
2022/10/03 06:49:00;;;;;;;16.55;5.18;;;7.70;99.90;;;;;;4977411;28;20104;-81
2022/10/03 06:51:31;;;;;;;16.65;5.57;;;7.70;99.90;;;;;;4994620;28;20092;-73
2022/10/03 06:54:31;;;;;;;14.80;5.75;;;7.80;99.90;;;;;;4992919;28;20042;-74
2022/10/03 06:57:21;;;;;;;14.02;5.55;;;7.90;99.90;;;;;;4993920;28;20090;-75
2022/10/03 07:00:10;;;;;;;11.43;4.22;;;7.90;99.90;;;;;;4994612;28;20047;-74
2022/10/03 07:02:54;;;;;;;14.63;4.82;;;8.00;99.90;;;;;;5009406;28;20419;-74
2022/10/03 07:05:54;;;;;;;15.65;4.53;;;8.10;99.90;;;;;;4993611;28;20054;-74
2022/10/03 07:08:35;;;;;;;13.45;4.32;;;8.20;99.90;;;;;;4993867;28;20173;-76
2022/10/03 07:11:10;;;;;;;14.15;4.30;;;8.30;99.90;;;;;;5009131;28;20447;-79
2022/10/03 07:13:55;;;;;;;19.95;4.57;;;8.40;99.90;;;;;;5009188;28;20116;-77
2022/10/03 07:16:42;;;;;;;16.90;4.18;;;8.50;99.90;;;;;;4993554;28;20088;-76
2022/10/03 07:19:31;;;;;;;20.63;4.68;;;8.60;99.90;;;;;;4992802;28;20046;-74
2022/10/03 07:22:35;;;;;;;14.27;4.57;;;8.70;99.90;;;;;;4987876;28;20402;-73
2022/10/03 07:25:30;;;;;;;21.98;5.28;;;8.90;99.90;;;;;;4992435;28;20331;-73
2022/10/03 07:28:17;;;;;;;18.10;4.53;;;9.10;99.90;;;;;;4992495;28;20052;-74
2022/10/03 07:30:54;;;;;;;17.75;4.13;;;9.20;99.90;;;;;;4992745;28;20054;-75
2022/10/03 07:33:37;;;;;;;15.52;4.45;;;9.30;99.90;;;;;;4993803;28;20062;-73
2022/10/03 07:39:24;;;;;;;19.50;4.07;;;9.60;99.90;;;;;;4992651;28;20055;-74
2022/10/03 07:42:28;;;;;;;20.77;4.50;;;9.80;99.90;;;;;;4993136;28;20100;-72
2022/10/03 07:45:21;;;;;;;25.83;4.90;;;9.90;99.90;;;;;;4993634;28;20129;-74
2022/10/03 07:48:04;;;;;;;15.90;3.92;;;10.00;99.90;;;;;;4994002;28;20120;-73
2022/10/03 07:50:58;;;;;;;15.13;3.70;;;10.20;99.90;;;;;;4993637;28;20129;-74
2022/10/03 07:53:33;;;;;;;24.92;3.90;;;10.40;99.90;;;;;;5008902;28;20081;-75
2022/10/03 07:56:20;;;;;;;24.10;3.78;;;10.50;99.90;;;;;;4992348;28;20065;-74
2022/10/03 07:59:07;;;;;;;41.45;4.20;;;10.60;99.90;;;;;;5009399;28;20117;-75
2022/10/03 08:01:36;;;;;;;22.30;3.45;;;10.70;99.90;;;;;;4994246;28;20061;-74
2022/10/03 08:04:33;;;;;;;19.60;3.60;;;10.70;99.90;;;;;;5009009;28;20081;-74
2022/10/03 08:07:22;;;;;;;21.77;4.03;;;10.90;99.90;;;;;;4993945;28;20136;-73
2022/10/03 08:09:54;;;;;;;29.52;3.70;;;11.00;99.90;;;;;;4993590;28;20129;-76
2022/10/03 08:12:47;;;;;;;20.70;3.78;;;11.10;99.90;;;;;;4993780;28;20069;-76
2022/10/03 08:15:26;;;;;;;17.52;3.95;;;11.30;99.90;;;;;;4995507;28;20160;-74
2022/10/03 08:18:13;;;;;;;16.40;4.60;;;11.40;99.90;;;;;;5011340;28;20093;-79
2022/10/03 08:20:42;;;;;;;21.80;3.40;;;11.40;99.90;;;;;;5008302;28;20105;-76
2022/10/03 08:23:43;;;;;;;23.35;4.03;;;11.60;99.90;;;;;;4996040;28;20058;-75
2022/10/03 08:26:49;;;;;;;22.73;3.55;;;11.70;99.90;;;;;;4994502;28;20054;-74
2022/10/03 08:29:30;;;;;;;20.00;4.15;;;11.80;99.90;;;;;;4946519;28;20113;-74
2022/10/03 08:32:34;;;;;;;29.50;3.53;;;11.90;99.90;;;;;;4993763;28;20059;-73
2022/10/03 08:35:24;;;;;;;15.27;2.97;;;12.10;99.90;;;;;;5008594;28;20052;-74
2022/10/03 08:38:15;;;;;;;18.92;3.25;;;12.10;99.90;;;;;;4997257;28;20047;-74
2022/10/03 08:41:02;;;;;;;16.40;3.33;;;12.20;99.90;;;;;;4997499;28;20049;-75
2022/10/03 08:43:52;;;;;;;18.42;3.35;;;12.30;99.90;;;;;;4995738;28;20526;-74
2022/10/03 08:46:49;;;;;;;17.42;2.83;;;12.40;99.90;;;;;;5012090;28;20057;-74
2022/10/03 08:49:33;;;;;;;24.25;3.15;;;12.50;99.90;;;;;;4996780;28;20077;-82
2022/10/03 08:52:34;;;;;;;21.60;3.17;;;12.70;99.90;;;;;;4996940;28;20133;-76
2022/10/03 08:55:14;;;;;;;20.30;2.33;;;12.80;99.90;;;;;;4997388;28;20136;-74
2022/10/03 08:58:00;;;;;;;11.25;2.30;;;12.90;99.90;;;;;;4995479;28;20117;-75
2022/10/03 09:00:41;;;;;;;17.15;2.47;;;12.90;99.90;;;;;;4995828;28;20050;-76
2022/10/03 09:03:32;;;;;;;15.95;3.03;;;13.00;99.90;;;;;;4996499;28;20046;-75
2022/10/03 09:06:09;;;;;;;11.32;2.03;;;13.10;99.90;;;;;;5011533;28;20054;-74
2022/10/03 09:09:01;;;;;;;11.73;1.85;;;13.10;99.90;;;;;;4996599;28;20046;-79
2022/10/03 09:11:39;;;;;;;15.23;1.75;;;13.30;99.90;;;;;;4995332;28;20054;-75
2022/10/03 09:14:17;;;;;;;16.88;1.92;;;13.30;99.90;;;;;;5011846;28;20463;-75
2022/10/03 09:17:27;;;;;;;14.98;1.60;;;13.30;99.90;;;;;;4995035;28;20058;-76
2022/10/03 09:20:30;;;;;;;15.23;1.73;;;13.40;99.90;;;;;;4986046;28;20062;-78
2022/10/03 09:23:34;;;;;;;17.38;1.55;;;13.50;99.90;;;;;;5011086;28;20052;-75
2022/10/03 09:26:24;;;;;;;15.68;1.10;;;13.60;99.90;;;;;;4994455;28;20132;-74
2022/10/03 09:29:09;;;;;;;13.50;1.08;;;13.70;99.90;;;;;;4996111;28;20042;-75
2022/10/03 09:32:12;;;;;;;13.07;1.40;;;13.80;99.90;;;;;;4996136;28;20113;-75
2022/10/03 09:34:40;;;;;;;19.08;0.98;;;13.90;99.90;;;;;;4996456;28;20107;-75
2022/10/03 09:37:25;;;;;;;13.70;1.27;;;13.90;99.90;;;;;;5011096;28;20042;-75
2022/10/03 09:40:00;;;;;;;12.13;1.40;;;14.00;99.90;;;;;;4996458;28;20049;-75
2022/10/03 09:42:26;;;;;;;11.05;1.40;;;14.10;99.90;;;;;;5012472;28;20058;-75
2022/10/03 09:45:20;;;;;;;21.00;1.25;;;14.30;99.90;;;;;;4996872;28;20053;-74
2022/10/03 09:48:13;;;;;;;10.48;0.70;;;14.40;99.90;;;;;;4998060;28;20066;-75
2022/10/03 09:51:08;;;;;;;8.60;0.70;;;14.50;99.90;;;;;;4998455;28;20061;-78
2022/10/03 09:54:11;;;;;;;12.77;0.70;;;14.60;99.90;;;;;;4995476;28;20465;-79
2022/10/03 09:56:58;;;;;;;10.73;0.60;;;14.80;99.90;;;;;;5010887;28;20364;-75
2022/10/03 09:59:50;;;;;;;13.52;0.93;;;14.90;99.90;;;;;;4995631;28;20114;-75
2022/10/03 10:02:22;;;;;;;9.50;0.80;;;14.90;99.90;;;;;;4995489;28;20054;-73
2022/10/03 10:05:10;;;;;;;8.93;0.57;;;14.90;99.90;;;;;;4999594;28;20541;-74
2022/10/03 10:08:01;;;;;;;15.20;0.85;;;15.00;99.90;;;;;;4995746;28;20086;-76
2022/10/03 10:10:48;;;;;;;14.18;0.60;;;15.00;99.90;;;;;;4995014;28;20046;-75
2022/10/03 10:13:28;;;;;;;12.73;0.90;;;15.10;99.90;;;;;;5009957;28;20042;-75
2022/10/03 10:15:53;;;;;;;6.60;0.40;;;15.20;99.90;;;;;;4994932;28;20085;-76
2022/10/03 10:18:40;;;;;;;11.05;0.40;;;15.20;99.90;;;;;;4994060;28;20141;-76
2022/10/03 10:21:27;;;;;;;10.15;0.60;;;15.30;99.90;;;;;;4994779;28;20053;-75
2022/10/03 10:24:03;;;;;;;9.73;0.60;;;15.40;99.90;;;;;;5010085;28;20051;-74
2022/10/03 10:26:29;;;;;;;15.55;0.60;;;;;;;;;;4994251;28;20061;-77
2022/10/03 10:29:10;;;;;;;9.85;0.65;;;16.60;99.90;;;;;;4993772;28;20042;-76
2022/10/03 10:32:06;;;;;;;10.60;0.50;;;15.80;99.90;;;;;;4995287;28;20399;-74
2022/10/03 10:35:04;;;;;;;12.60;0.60;;;;;;;;;;4977917;28;20115;-73
2022/10/03 10:37:42;;;;;;;9.25;0.57;;;18.20;99.90;;;;;;5009833;28;20053;-78
2022/10/03 10:40:25;;;;;;;13.00;0.70;;;16.10;99.90;;;;;;4994316;28;20058;-78
2022/10/03 10:43:25;;;;;;;7.85;0.52;;;16.10;99.90;;;;;;4994163;28;20050;-75
2022/10/03 10:46:12;;;;;;;10.18;0.70;;;16.10;99.90;;;;;;4971555;28;20058;-74
2022/10/03 10:49:06;;;;;;;9.85;0.57;;;16.30;99.90;;;;;;4993109;28;20058;-72
2022/10/03 10:51:45;;;;;;;10.48;0.60;;;16.30;99.90;;;;;;4995230;28;20058;-78
2022/10/03 10:54:50;;;;;;;10.70;0.65;;;16.30;99.90;;;;;;4995367;28;20057;-75
2022/10/03 10:57:55;;;;;;;11.15;0.60;;;16.30;99.90;;;;;;4995459;28;20132;-74
2022/10/03 11:00:38;;;;;;;10.45;0.68;;;16.30;99.90;;;;;;4993459;28;20050;-75
2022/10/03 11:03:34;;;;;;;10.05;0.70;;;16.40;99.90;;;;;;4993607;28;20054;-76
2022/10/03 11:06:37;;;;;;;5.18;0.50;;;16.50;99.90;;;;;;4995280;28;20046;-73
2022/10/03 11:09:12;;;;;;;7.25;0.52;;;16.40;99.90;;;;;;4993305;28;20093;-75
2022/10/03 11:11:50;;;;;;;12.18;1.15;;;16.40;99.90;;;;;;4995189;28;20382;-77
2022/10/03 11:14:53;;;;;;;6.97;0.47;;;16.30;99.90;;;;;;4995667;28;20050;-74
2022/10/03 11:17:50;;;;;;;13.27;0.55;;;16.30;99.90;;;;;;5004368;28;20046;-76
2022/10/03 11:20:44;;;;;;;5.50;0.40;;;16.40;99.90;;;;;;5009137;28;20050;-75
2022/10/03 11:23:15;;;;;;;9.13;0.57;;;16.40;99.90;;;;;;4999156;28;20052;-76
2022/10/03 11:26:05;;;;;;;9.50;0.60;;;16.50;99.90;;;;;;4995424;28;20056;-77
2022/10/03 11:28:37;;;;;;;10.57;0.50;;;16.70;99.90;;;;;;4995060;28;20046;-80
2022/10/03 11:31:39;;;;;;;12.52;0.77;;;16.80;99.90;;;;;;4994466;28;20042;-76
2022/10/03 11:34:30;;;;;;;6.10;0.40;;;16.90;99.90;;;;;;4994016;28;20050;-76
2022/10/03 11:37:18;;;;;;;5.93;0.50;;;17.20;99.90;;;;;;4994687;28;20054;-75
2022/10/03 11:40:34;;;;;;;9.32;0.50;;;17.40;99.90;;;;;;4995003;28;20061;-75
2022/10/03 11:43:37;;;;;;;11.55;0.70;;;17.50;99.90;;;;;;4976694;28;20136;-74
2022/10/03 11:46:17;;;;;;;4.95;0.90;;;17.50;99.90;;;;;;4993973;28;20062;-73
2022/10/03 11:48:52;;;;;;;8.93;0.55;;;17.50;99.90;;;;;;4992468;28;20066;-76
2022/10/03 11:51:34;;;;;;;8.68;0.70;;;;;;;;;;4993381;28;20080;-75
2022/10/03 11:54:14;;;;;;;9.10;0.55;;;17.90;99.90;;;;;;4993918;28;20050;-77
2022/10/03 11:56:46;;;;;;;11.70;0.75;;;17.90;99.90;;;;;;4992687;28;20064;-75
2022/10/03 11:59:51;;;;;;;7.57;0.47;;;17.90;99.90;;;;;;4994385;28;20054;-73
2022/10/03 12:02:33;;;;;;;10.40;0.70;;;17.90;99.90;;;;;;4992919;28;20050;-76
2022/10/03 12:05:12;;;;;;;8.00;0.40;;;17.90;99.90;;;;;;4993037;28;20147;-75
2022/10/03 12:11:17;;;;;;;8.13;0.60;;;17.70;99.90;;;;;;4994244;28;20058;-76
2022/10/03 12:14:07;;;;;;;14.63;0.98;;;17.90;99.90;;;;;;4997636;28;20050;-75
2022/10/03 12:17:01;;;;;;;5.45;0.68;;;17.90;99.90;;;;;;4996515;28;20042;-74
2022/10/03 12:19:57;;;;;;;8.35;0.63;;;17.90;99.90;;;;;;4996441;28;20073;-76
2022/10/03 12:22:33;;;;;;;16.50;1.63;;;17.80;99.90;;;;;;4996496;28;20050;-75
2022/10/03 12:25:22;;;;;;;7.80;0.50;;;17.70;99.90;;;;;;4996608;28;20076;-73
2022/10/03 12:27:57;;;;;;;6.55;0.95;;;17.70;99.90;;;;;;4998643;28;20046;-76
2022/10/03 12:30:25;;;;;;;11.52;0.80;;;17.60;99.90;;;;;;4997801;28;20132;-75
2022/10/03 12:33:00;;;;;;;9.80;0.60;;;17.60;99.90;;;;;;4997337;28;20096;-76
2022/10/03 12:35:32;;;;;;;6.95;0.60;;;17.50;99.90;;;;;;4997968;28;20050;-77
2022/10/03 12:38:03;;;;;;;9.30;0.55;;;17.50;99.90;;;;;;4997374;28;20058;-76
2022/10/03 12:40:36;;;;;;;9.80;0.52;;;17.50;99.90;;;;;;4997283;28;20109;-74
2022/10/03 12:43:02;;;;;;;5.88;0.60;;;17.40;99.90;;;;;;5011845;28;20085;-77
2022/10/03 12:45:44;;;;;;;4.70;0.40;;;17.50;99.90;;;;;;4996026;28;20050;-75
2022/10/03 12:48:16;;;;;;;7.97;0.60;;;17.50;99.90;;;;;;4997359;28;20458;-74
2022/10/03 12:50:55;;;;;;;6.50;0.50;;;17.50;99.90;;;;;;4996132;28;20518;-78
2022/10/03 12:53:53;;;;;;;6.55;0.50;;;17.50;99.90;;;;;;4996568;28;20398;-74
2022/10/03 12:56:47;;;;;;;7.45;0.50;;;17.50;99.90;;;;;;4996523;28;20133;-75
2022/10/03 12:59:39;;;;;;;7.63;0.40;;;17.40;99.90;;;;;;4996454;28;20339;-75
2022/10/03 13:02:29;;;;;;;6.28;0.60;;;17.50;99.90;;;;;;4997509;28;20053;-75
2022/10/03 13:05:28;;;;;;;7.03;0.50;;;17.50;99.90;;;;;;4996292;28;20109;-76
2022/10/03 13:08:01;;;;;;;7.10;0.60;;;17.60;99.90;;;;;;4995885;28;20195;-74
2022/10/03 13:10:45;;;;;;;7.93;0.45;;;17.70;99.90;;;;;;5012141;28;20478;-74
2022/10/03 13:13:41;;;;;;;5.30;0.40;;;17.80;99.90;;;;;;4996684;28;20093;-74
2022/10/03 13:16:25;;;;;;;6.25;0.38;;;17.80;99.90;;;;;;4996454;28;20093;-77
2022/10/03 13:19:16;;;;;;;9.68;0.60;;;17.70;99.90;;;;;;4997906;28;20055;-75
2022/10/03 13:22:04;;;;;;;4.75;0.45;;;17.60;99.90;;;;;;4995596;28;20125;-80
2022/10/03 13:24:58;;;;;;;11.25;0.50;;;17.50;99.90;;;;;;4994897;28;20050;-77
2022/10/03 13:27:36;;;;;;;7.50;0.47;;;17.60;99.90;;;;;;5011492;28;20046;-76
2022/10/03 13:30:12;;;;;;;6.93;0.35;;;17.60;99.90;;;;;;4996983;28;20038;-78
2022/10/03 13:32:45;;;;;;;5.70;0.40;;;17.80;99.90;;;;;;4996575;28;20050;-74
2022/10/03 13:38:25;;;;;;;10.07;0.60;;;17.80;99.90;;;;;;4995366;28;20058;-73
2022/10/03 13:41:33;;;;;;;10.38;0.38;;;17.90;99.90;;;;;;4996964;28;20133;-75
2022/10/03 13:44:09;;;;;;;9.13;0.57;;;17.80;99.90;;;;;;4978070;28;20066;-74
2022/10/03 13:46:36;;;;;;;4.93;0.40;;;17.90;99.90;;;;;;4996776;28;20057;-75
2022/10/03 13:49:13;;;;;;;4.53;0.30;;;18.10;99.90;;;;;;4996071;28;20078;-75
2022/10/03 13:51:55;;;;;;;5.38;0.38;;;18.20;99.90;;;;;;4998837;28;20057;-76
2022/10/03 13:54:43;;;;;;;4.43;0.50;;;18.20;99.90;;;;;;4997212;28;20046;-76
2022/10/03 13:57:18;;;;;;;6.53;0.40;;;18.10;99.90;;;;;;4997267;28;20501;-77
2022/10/03 13:59:53;;;;;;;8.80;0.57;;;18.10;99.90;;;;;;4979416;28;20395;-78
2022/10/03 14:02:47;;;;;;;5.25;0.50;;;18.10;99.90;;;;;;4994969;28;20050;-76
2022/10/03 14:05:28;;;;;;;7.22;0.47;;;18.00;99.90;;;;;;4993981;28;20068;-74
2022/10/03 14:08:09;;;;;;;6.25;0.40;;;18.00;99.90;;;;;;4995666;28;20475;-76
2022/10/03 14:10:50;;;;;;;9.43;0.55;;;17.90;99.90;;;;;;4995382;28;20042;-75
2022/10/03 14:13:24;;;;;;;8.98;0.55;;;18.00;99.90;;;;;;4996845;28;20073;-78
2022/10/03 14:15:57;;;;;;;6.35;0.50;;;18.10;99.90;;;;;;4997939;28;20105;-74
2022/10/03 14:18:48;;;;;;;10.00;0.73;;;18.10;99.90;;;;;;4999028;28;20534;-74
2022/10/03 14:21:45;;;;;;;7.88;0.63;;;18.10;99.90;;;;;;5006690;28;20046;-74
2022/10/03 14:24:27;;;;;;;7.60;0.50;;;18.10;99.90;;;;;;4999543;28;20056;-74
2022/10/03 14:27:01;;;;;;;7.80;0.70;;;18.00;99.90;;;;;;4997566;28;20053;-75
2022/10/03 14:29:36;;;;;;;6.80;0.40;;;18.00;99.90;;;;;;4995645;28;20508;-75
2022/10/03 14:32:37;;;;;;;9.02;0.50;;;17.70;99.90;;;;;;5010386;28;20559;-73
2022/10/03 14:35:18;;;;;;;5.95;0.40;;;17.70;99.90;;;;;;4995011;28;20053;-74
2022/10/03 14:41:27;;;;;;;6.40;0.80;;;17.70;99.90;;;;;;4982179;28;20495;-73